Tiempo atmosférico en la estación meteorológica de Palencia, Palencia (736 m.)



Fecha
DESCASC
Temp. máxima en grados centígrados (hora)
DESCASC
Temp. mínima en grados centígrados (hora)
DESCASC
Temp. media en grados centígrados
DESCASC
Racha de viento máxima en m/sg (hora)
DESCASC
Velocidad máxima media en intervalos de 10 minutos(hora)
DESCASC
Precipitaciones diarias en mm
DESCASC
Precipitaciones de 00:00 a 06:00 en mm
DESCASC
Precipitaciones de 06:00 a 12:00 en mm
DESCASC
Precipitaciones de 12:00 a 18:00 en mm
DESCASC
Precipitaciones de 18:00 a 24:00 en mm
DESCASC
25-04-2019 12.1 (16:10) 2.9 (06:00) 7.5 19.72 (19:00) 10.28 (19:00) 4 3.2 0.2 0.2 0.4
24-04-2019 13.4 (16:00) 1.5 (04:40) 7.4 14.72 (18:10) 8.33 (18:10) 11 0 4.2 3.8 3
23-04-2019 14 (16:20) 4.1 (23:50) 9 13.61 (18:10) 7.22 (17:30) 6 1 0.6 0.6 3.8
22-04-2019 17.7 (19:10) 7.7 (00:00) 12.7 8.33 (14:40) 2.78 (21:50) 0 0 0 0 0
21-04-2019 15.2 (14:40) 5.3 (00:00) 10.3 9.44 (14:40) 5 (14:40) 0 0 0 0 0
20-04-2019 20.4 (16:10) 8.9 (00:00) 14.6 12.22 (14:20) 6.11 (14:20) 0 0 0 0 0
19-04-2019 14.7 (18:20) 8.5 (00:00) 11.6 9.44 (13:40) 4.44 (13:20) 2 2 0 0 0
18-04-2019 11.2 (00:00) 8.8 (00:00) 10 6.94 (02:30) 3.61 (02:30) 8.4 3 0.2 3.8 1.4
17-04-2019 19.5 (18:20) 5.2 (00:00) 12.3 11.11 (19:10) 5.83 (19:10) 0.4 0 0 0 0.4
16-04-2019 19 (18:20) 1.5 (00:00) 10.3 6.67 (15:10) 3.61 (15:10) 0 0 0 0 0
15-04-2019 22.3 (13:40) 8.7 (00:00) 15.5 18.06 (16:40) 11.11 (17:00) 3.2 0 0 3.2 0
14-04-2019 22.1 (18:30) 9.3 (00:00) 15.7 10 (05:10) 5.56 (02:40) 0 0 0 0 0
13-04-2019 20.5 (16:50) -0.1 (00:00) 10.2 9.17 (15:10) 5 (23:50) 0 0 0 0 0
12-04-2019 16.2 (18:20) -1 (-00:0) 7.6 7.5 (13:10) 3.61 (14:40) 0 0 0 0 0
11-04-2019 14.1 (16:30) -1.3 (-00:0) 6.4 6.11 (21:10) 3.33 (13:20) 0 0 0 0 0
10-04-2019 13 (18:20) 3.7 (00:00) 8.4 11.94 (00:10) 6.67 (02:40) 1.8 0 0.2 1.4 0.2
09-04-2019 11.8 (18:00) 3.8 (00:00) 7.8 16.11 (17:10) 7.78 (17:10) 2 0 0.6 1.4 0
08-04-2019 14.9 (17:00) 5.7 (00:00) 10.3 11.39 (13:50) 6.67 (21:00) 1 1 0 0 0
07-04-2019 13.2 (15:00) 1.5 (00:00) 7.3 12.78 (05:10) 7.78 (01:10) 3.8 0.2 0 0 3.6
06-04-2019 9.8 (15:50) 1.6 (00:00) 5.7 16.11 (16:10) 9.17 (16:30) 3.2 0 0.4 0.2 2.6
05-04-2019 10.5 (18:10) 2.4 (00:00) 6.5 9.44 (16:00) 6.39 (16:00) 4.2 2.2 1.2 0.6 0.2
04-04-2019 13 (17:00) -2.5 (-00:0) 5.3 11.67 (17:00) 6.11 (17:50) 1.2 0 0 0 1.2
03-04-2019 11.7 (13:40) 0.8 (05:50) 6.2 16.39 (16:40) 9.17 (16:50) 0 0 0 0 0
02-04-2019 18.1 (17:40) 3.7 (00:00) 10.9 7.78 (21:50) 4.72 (22:00) 0 0 0 0 0
01-04-2019 17.7 (17:40) 0.7 (00:00) 9.2 6.11 (16:40) 3.61 (00:20) 0 0 0 0 0
31-03-2019 18.5 (17:50) 2.4 (00:00) 10.5 8.89 (20:10) 5.56 (20:10) 0 0 0 0 0
30-03-2019 19.2 (14:20) 5.2 (00:00) 12.2 6.94 (12:30) 3.89 (10:20) 0 0 0 0 0
29-03-2019 20.5 (15:40) -1.4 (-00:0) 9.6 8.33 (11:10) 4.44 (11:00) 0 0 0 0 0
28-03-2019 17.6 (17:00) 1.4 (00:00) 9.5 9.72 (02:20) 4.17 (18:40) 0 0 0 0 0
27-03-2019 17.7 (15:40) 2.5 (00:00) 10.1 12.5 (16:00) 6.94 (16:00) 0 0 0 0 0

Gráficas

Temp. máximas Temp. mínimas Temp. medias Precipitaciones Rachas de viento máximas Velocidades máximas media en intervalos de 10 minutos

Datos horarios

Fecha y hora oficial Temperatura (ºC) Velocidad del viento (km/h) Dirección del viento Racha (km/h) Dirección de racha Precipitación (mm) Presión (hPa) Tendencia (hPa) Humedad (%)
2019-04-25 23:00:00 6 16 Sudoeste 33 Sudoeste 0 -- -- 86
2019-04-25 22:00:00 5.7 13 Sudoeste 40 Oeste 0 -- -- 89
2019-04-25 21:00:00 6.3 17 Oeste 53 Oeste 0 -- -- 85
2019-04-25 20:00:00 7.6 26 Oeste 49 Oeste 0 -- -- 85
2019-04-25 19:00:00 6.7 37 Oeste 71 Oeste 0.4 -- -- 83
2019-04-25 18:00:00 10.8 26 Sudoeste 59 Oeste 0 -- -- 66
2019-04-25 17:00:00 10.4 22 Sudoeste 46 Sudoeste 0.2 -- -- 74
2019-04-25 16:00:00 11.7 19 Sudoeste 41 Sudoeste 0 -- -- 67
2019-04-25 15:00:00 10.7 24 Oeste 48 Oeste 0 -- -- 68
2019-04-25 14:00:00 9.8 17 Sudoeste 41 Sudoeste 0 -- -- 73
2019-04-25 13:00:00 9.3 18 Sudoeste 38 Sudoeste 0 -- -- 70
2019-04-25 12:00:00 7.4 21 Oeste 41 Sudoeste 0 -- -- 78
2019-04-25 11:00:00 7.3 19 Sudoeste 41 Oeste 0 -- -- 78
2019-04-25 10:00:00 5.9 22 Sudoeste 44 Oeste 0 -- -- 84
2019-04-25 09:00:00 4.9 21 Sudoeste 40 Oeste 0 -- -- 92
2019-04-25 08:00:00 4.2 13 Sudoeste 25 Sudoeste 0.2 -- -- 96
2019-04-25 07:00:00 4 9 Sudoeste 17 Sudoeste 0 -- -- 97
2019-04-25 06:00:00 2.9 3 Sudeste 36 Oeste 0 -- -- 94
2019-04-25 05:00:00 4.9 21 Oeste 37 Sudoeste 0 -- -- 94
2019-04-25 04:00:00 5 11 Sudoeste 31 Sudoeste 0 -- -- 96
2019-04-25 03:00:00 4.8 17 Oeste 42 Oeste 1 -- -- 95
2019-04-25 02:00:00 5.9 10 Sudoeste 30 Oeste 0.2 -- -- 96
2019-04-25 01:00:00 6.5 14 Oeste 44 Oeste 2 -- -- 97
2019-04-25 00:00:00 7.2 9 Sudoeste 26 Sudoeste 0 -- -- 96
2019-04-24 23:00:00 7.2 14 Sudoeste 35 Oeste 2.4 -- -- 93
2019-04-24 22:00:00 8.1 8 Sudoeste 36 Sudoeste 0 -- -- 92
2019-04-24 21:00:00 8.2 19 Sudoeste 53 Oeste 0 -- -- 88
2019-04-24 20:00:00 8.7 26 Sudoeste 52 Oeste 0.2 -- -- 88
2019-04-24 19:00:00 8.8 23 Oeste 53 Oeste 0.4 -- -- 93
2019-04-24 18:00:00 9 22 Oeste 46 Oeste 2.6 -- -- 94
2019-04-24 17:00:00 11 27 Oeste 49 Oeste 0.2 -- -- 86
2019-04-24 16:00:00 13.4 23 Sudoeste 48 Sudoeste 0 -- -- 79
2019-04-24 15:00:00 11.2 27 Sudoeste 47 Sudoeste 1 -- -- 88
2019-04-24 14:00:00 11 14 Sur 32 Sudoeste 0 -- -- 91
2019-04-24 13:00:00 9.4 13 Sur 37 Sudeste 0 -- -- 93
2019-04-24 12:00:00 7.9 16 Sur 37 Sudoeste 0 -- -- 94
2019-04-24 11:00:00 5.1 17 Sur 35 Sur 0.4 -- -- 99
2019-04-24 10:00:00 2.4 12 Sudeste 30 Sudeste 2 -- -- 97
2019-04-24 09:00:00 2.8 11 Sur 24 Sudeste 1.2 -- -- 94
2019-04-24 08:00:00 3.3 9 Sur 25 Sudoeste 0.6 -- -- 94
2019-04-24 07:00:00 3.2 6 Sur 18 Sur 0 -- -- 95
2019-04-24 06:00:00 2.4 8 Sur 13 Sur 0 -- -- 96
2019-04-24 05:00:00 1.7 5 Sur 16 Sudoeste 0 -- -- 95
2019-04-24 04:00:00 1.7 6 Sur 13 Sudoeste 0 -- -- 94
2019-04-24 03:00:00 2.5 6 Sudoeste 14 Sudoeste 0 -- -- 92
2019-04-24 02:00:00 3.2 9 Sudoeste 19 Sur 0 -- -- 93
2019-04-24 01:00:00 3.4 9 Sudoeste 21 Sudoeste 0 -- -- 90
2019-04-24 00:00:00 4.1 13 Sudoeste 27 Sudoeste 0 -- -- 87
2019-04-23 23:00:00 4.6 12 Sudoeste 24 Sudoeste 0.2 -- -- 87
2019-04-23 22:00:00 5.3 10 Sudoeste 21 Oeste 0 -- -- 82
2019-04-23 21:00:00 6.3 16 Oeste 33 Oeste 0 -- -- 82
2019-04-23 20:00:00 8.2 18 Oeste 37 Oeste 0 -- -- 81
2019-04-23 19:00:00 6.6 9 Oeste 49 Sudoeste 3.6 -- -- 94
2019-04-23 18:00:00 7.4 22 Sudoeste 45 Sudoeste 0.6 -- -- 78
2019-04-23 17:00:00 13.5 10 Sudoeste 24 Oeste 0 -- -- 50
2019-04-23 16:00:00 13.9 10 Sudoeste 24 Sudoeste 0 -- -- 48
2019-04-23 15:00:00 11.7 11 Oeste 24 Oeste 0 -- -- 56
2019-04-23 14:00:00 9.1 12 Oeste 28 Oeste 0 -- -- 71
2019-04-23 13:00:00 8.6 15 Oeste 28 Oeste 0 -- -- 72
2019-04-23 12:00:00 8.2 14 Oeste 35 Oeste 0 -- -- 78
2019-04-23 11:00:00 7.7 15 Oeste 24 Oeste 0 -- -- 83
2019-04-23 10:00:00 6.8 9 Sudoeste 17 Sudoeste 0 -- -- 88
2019-04-23 09:00:00 6.9 8 Sudoeste 19 Sudoeste 0 -- -- 89
2019-04-23 08:00:00 6.7 6 Oeste 19 Oeste 0.2 -- -- 91
2019-04-23 07:00:00 6.8 14 Oeste 35 Oeste 0.4 -- -- 92
2019-04-23 06:00:00 9.8 6 Sudoeste 15 Oeste 0 -- -- 93
2019-04-23 05:00:00 9.8 0 Calma 5 Sur 0 -- -- 93
2019-04-23 04:00:00 9.9 0 Calma 5 Sudeste 0.2 -- -- 91
2019-04-23 03:00:00 9.9 2 Sudoeste 27 Oeste 0.6 -- -- 91
2019-04-23 02:00:00 10.5 17 Oeste 32 Oeste 0.2 -- -- 87
2019-04-23 01:00:00 11.6 4 Sudoeste 12 Sur 0 -- -- 77
2019-04-23 00:00:00 12.2 5 Sudoeste 14 Sur 0 -- -- 75
2019-04-22 23:00:00 12.6 5 Sur 15 Sudoeste 0 -- -- 71
2019-04-22 22:00:00 13 7 Sudoeste 21 Sudoeste 0 -- -- 65
2019-04-22 21:00:00 14.4 2 Sudoeste 9 Sur 0 -- -- 64
2019-04-22 20:00:00 16.4 5 Sur 14 Sur 0 -- -- 51
2019-04-22 19:00:00 17.3 6 Sudoeste 16 Sudoeste 0 -- -- 49
2019-04-22 18:00:00 17.6 6 Sudoeste 17 Sur 0 -- -- 47
2019-04-22 17:00:00 16.3 9 Oeste 19 Sudoeste 0 -- -- 52
2019-04-22 16:00:00 17.3 9 Sudoeste 19 Oeste 0 -- -- 49
2019-04-22 15:00:00 16.8 7 Oeste 30 Oeste 0 -- -- 55
2019-04-22 14:00:00 15.6 5 Sudeste 18 Sudeste 0 -- -- 58
2019-04-22 13:00:00 14.3 5 Sudeste 10 Sudeste 0 -- -- 64
2019-04-22 12:00:00 12.5 6 Norte 13 Noroeste 0 -- -- 70
2019-04-22 11:00:00 12 5 Este 11 Noroeste 0 -- -- 70
2019-04-22 10:00:00 9.7 4 Noroeste 8 Noroeste 0 -- -- 82
2019-04-22 09:00:00 8.4 5 Noroeste 8 Noroeste 0 -- -- 92
2019-04-22 08:00:00 7.8 2 Noroeste 9 Noroeste 0 -- -- 93
2019-04-22 07:00:00 7.8 4 Noroeste 9 Noroeste 0 -- -- 90
2019-04-22 06:00:00 8 3 Noroeste 10 Noroeste 0 -- -- 91
2019-04-22 05:00:00 7.9 5 Noroeste 9 Noroeste 0 -- -- 91
2019-04-22 04:00:00 8 4 Noroeste 9 Noroeste 0 -- -- 90
2019-04-22 03:00:00 8.8 2 Nordeste 5 Nordeste 0 -- -- 84
2019-04-22 02:00:00 9.1 3 Nordeste 13 Nordeste 0 -- -- 83
2019-04-22 01:00:00 9.5 5 Nordeste 16 Este 0 -- -- 83
2019-04-22 00:00:00 9.8 8 Nordeste 17 Nordeste 0 -- -- 82
2019-04-21 23:00:00 10.3 8 Nordeste 17 Nordeste 0 -- -- 79
2019-04-21 22:00:00 11.2 7 Nordeste 15 Sudeste 0 -- -- 71
2019-04-21 21:00:00 11.4 5 Nordeste 23 Este 0 -- -- 70
2019-04-21 20:00:00 12.5 10 Nordeste 23 Nordeste 0 -- -- 64
2019-04-21 19:00:00 13.1 14 Nordeste 28 Nordeste 0 -- -- 61
2019-04-21 18:00:00 13.3 14 Nordeste 30 Este 0 -- -- 60
2019-04-21 17:00:00 14 12 Nordeste 28 Este 0 -- -- 59
2019-04-21 16:00:00 14.4 12 Nordeste 33 Nordeste 0 -- -- 57
2019-04-21 15:00:00 14.6 15 Nordeste 34 Este 0 -- -- 57
2019-04-21 14:00:00 14.5 14 Este 28 Este 0 -- -- 59
2019-04-21 13:00:00 13.1 12 Nordeste 28 Nordeste 0 -- -- 63
2019-04-21 12:00:00 12.5 16 Nordeste 33 Este 0 -- -- 60
2019-04-21 11:00:00 13 9 Este 28 Nordeste 0 -- -- 72
2019-04-21 10:00:00 9.4 7 Este 17 Sudeste 0 -- -- 85
2019-04-21 09:00:00 8 5 Este 11 Este 0 -- -- 87
2019-04-21 08:00:00 5.3 0 Calma 9 Nordeste 0 -- -- 88
2019-04-21 07:00:00 7.2 5 Nordeste 12 Este 0 -- -- 87
2019-04-21 06:00:00 8.2 3 Nordeste 9 Este 0 -- -- 77
2019-04-21 05:00:00 7.8 3 Este 17 Nordeste 0 -- -- 78
2019-04-21 04:00:00 9 7 Este 18 Este 0 -- -- 79
2019-04-21 03:00:00 9.6 10 Este 20 Nordeste 0 -- -- 76
2019-04-21 02:00:00 10.6 6 Este 21 Este 0 -- -- 68
2019-04-21 01:00:00 11.1 5 Este 18 Nordeste 0 -- -- 66
2019-04-21 00:00:00 11.9 6 Nordeste 24 Nordeste 0 -- -- 64
2019-04-20 23:00:00 12.7 10 Nordeste 31 Nordeste 0 -- -- 64
2019-04-20 22:00:00 13.8 12 Nordeste 29 Nordeste 0 -- -- 59
2019-04-20 21:00:00 15.9 10 Nordeste 32 Nordeste 0 -- -- 49
2019-04-20 20:00:00 18.1 10 Nordeste 35 Nordeste 0 -- -- 43
2019-04-20 19:00:00 19.3 13 Nordeste 35 Nordeste 0 -- -- 38
2019-04-20 18:00:00 19.9 17 Nordeste 37 Nordeste 0 -- -- 38
2019-04-20 17:00:00 20.3 15 Nordeste 39 Nordeste 0 -- -- 38
2019-04-20 16:00:00 20.1 17 Nordeste 32 Nordeste 0 -- -- 38
2019-04-20 15:00:00 19.2 18 Nordeste 44 Nordeste 0 -- -- 44
2019-04-20 14:00:00 18.4 18 Este 39 Nordeste 0 -- -- 50
2019-04-20 13:00:00 17.5 20 Nordeste 39 Este 0 -- -- 55
2019-04-20 12:00:00 16.4 14 Nordeste 31 Nordeste 0 -- -- 66
2019-04-20 11:00:00 15 17 Nordeste 35 Este 0 -- -- 61
2019-04-20 10:00:00 12.8 15 Nordeste 31 Nordeste 0 -- -- 67
2019-04-20 09:00:00 10.8 9 Nordeste 22 Norte 0 -- -- 76
2019-04-20 08:00:00 9 6 Este 24 Nordeste 0 -- -- 80
2019-04-20 07:00:00 9.7 11 Nordeste 29 Nordeste 0 -- -- 77
2019-04-20 06:00:00 10 10 Nordeste 20 Nordeste 0 -- -- 77
2019-04-20 05:00:00 10.2 9 Nordeste 16 Nordeste 0 -- -- 80
2019-04-20 04:00:00 10.2 6 Nordeste 19 Nordeste 0 -- -- 83
2019-04-20 03:00:00 10.8 8 Nordeste 16 Nordeste 0 -- -- 80
2019-04-20 02:00:00 10.7 4 Norte 13 Nordeste 0 -- -- 77
2019-04-20 01:00:00 11.4 5 Nordeste 12 Nordeste 0 -- -- 72
2019-04-20 00:00:00 12.5 5 Nordeste 16 Nordeste 0 -- -- 67
2019-04-19 23:00:00 13.2 10 Nordeste 19 Este 0 -- -- 63
2019-04-19 22:00:00 13.3 9 Nordeste 20 Nordeste 0 -- -- 64
2019-04-19 21:00:00 13.3 10 Nordeste 24 Este 0 -- -- 68
2019-04-19 20:00:00 13.5 10 Nordeste 23 Nordeste 0 -- -- 73
2019-04-19 19:00:00 14.2 12 Nordeste 23 Este 0 -- -- 73
2019-04-19 18:00:00 13.9 9 Nordeste 23 Nordeste 0 -- -- 75
2019-04-19 17:00:00 11.9 8 Nordeste 22 Este 0 -- -- 82
2019-04-19 16:00:00 11.4 12 Este 34 Nordeste 0 -- -- 84
2019-04-19 15:00:00 11.1 11 Este 29 Nordeste 0 -- -- 88
2019-04-19 14:00:00 12.3 14 Este 34 Nordeste 0 -- -- 79
2019-04-19 13:00:00 12.6 15 Este 31 Nordeste 0 -- -- 75
2019-04-19 12:00:00 12 14 Este 24 Este 0 -- -- 80
2019-04-19 11:00:00 10.7 10 Este 30 Nordeste 0 -- -- 86
2019-04-19 10:00:00 10.5 12 Este 27 Este 0 -- -- 86
2019-04-19 09:00:00 9 11 Este 23 Nordeste 0 -- -- 91
2019-04-19 08:00:00 8.5 4 Este 18 Este 0 -- -- 90
2019-04-19 07:00:00 8.7 8 Este 27 Sudeste 0 -- -- 89
2019-04-19 06:00:00 8.5 5 Este 29 Sudeste 0 -- -- 89
2019-04-19 05:00:00 8.5 11 Sudeste 27 Sudeste 0 -- -- 90
2019-04-19 04:00:00 8.8 8 Este 28 Este 0 -- -- 91
2019-04-19 03:00:00 8.9 9 Este 23 Nordeste 0.2 -- -- 94
2019-04-19 02:00:00 8.8 6 Nordeste 15 Nordeste 0.8 -- -- 95
2019-04-19 01:00:00 9.1 6 Nordeste 15 Nordeste 1 -- -- 93
2019-04-19 00:00:00 9.5 3 Nordeste 9 Este 0.6 -- -- 95
2019-04-18 23:00:00 9.6 4 Nordeste 12 Nordeste 0 -- -- 92
2019-04-18 22:00:00 9.5 4 Nordeste 11 Nordeste 0 -- -- 92
2019-04-18 21:00:00 9.7 7 Nordeste 13 Nordeste 0 -- -- 90
2019-04-18 20:00:00 9.9 4 Nordeste 10 Nordeste 0.4 -- -- 93
2019-04-18 19:00:00 9.8 4 Nordeste 13 Este 0.4 -- -- 90
2019-04-18 18:00:00 10.3 5 Norte 12 Norte 0.2 -- -- 88
2019-04-18 17:00:00 10.3 3 Norte 10 Nordeste 0.4 -- -- 85
2019-04-18 16:00:00 10.4 5 Este 19 Nordeste 0.2 -- -- 83
2019-04-18 15:00:00 11 6 Este 20 Sudeste 0 -- -- 86
2019-04-18 14:00:00 10.5 6 Este 16 Sudeste 2.8 -- -- 92
2019-04-18 13:00:00 9.6 9 Sudeste 21 Este 0.2 -- -- 90
2019-04-18 12:00:00 10.8 5 Este 13 Este 0 -- -- 87
2019-04-18 11:00:00 10.2 5 Este 15 Sudeste 0 -- -- 91
2019-04-18 10:00:00 9.6 3 Sudeste 5 Sudeste 0 -- -- 94
2019-04-18 09:00:00 9 2 Sur 4 Sudoeste 0 -- -- 95
2019-04-18 08:00:00 8.9 0 Calma 8 Sur 0 -- -- 94
2019-04-18 07:00:00 9 0 Calma 9 Sudeste 0.2 -- -- 94
2019-04-18 06:00:00 9.1 3 Sudeste 8 Sudeste 0.6 -- -- 94
2019-04-18 05:00:00 9.2 4 Sudeste 9 Sur 0.6 -- -- 93
2019-04-18 04:00:00 9.3 5 Sudoeste 16 Sudoeste 0.6 -- -- 91
2019-04-18 03:00:00 9.6 5 Sudoeste 25 Oeste 1.2 -- -- 90
2019-04-18 02:00:00 10.5 2 Sur 10 Sudoeste 0 -- -- 87
2019-04-18 01:00:00 10.9 3 Norte 11 Noroeste 0 -- -- 81
2019-04-18 00:00:00 11.2 10 Oeste 33 Oeste 0 -- -- 80
2019-04-17 23:00:00 14.4 8 Sudeste 23 Sur 0.2 -- -- 70
2019-04-17 22:00:00 14.7 7 Sudeste 21 Sudeste 0 -- -- 73
2019-04-17 21:00:00 15 7 Sudeste 18 Sudoeste 0 -- -- 71
2019-04-17 20:00:00 16 10 Sudoeste 40 Sudoeste 0.2 -- -- 68
2019-04-17 19:00:00 19 15 Sur 40 Sudoeste 0 -- -- 46
2019-04-17 18:00:00 19.4 16 Sur 32 Sudeste 0 -- -- 44
2019-04-17 17:00:00 19 15 Sudeste 35 Sur 0 -- -- 43
2019-04-17 16:00:00 18.7 8 Este 24 Sudeste 0 -- -- 50
2019-04-17 15:00:00 18.1 5 Sudeste 19 Sudeste 0 -- -- 57
2019-04-17 14:00:00 16.5 9 Sudeste 20 Sudeste 0 -- -- 61
2019-04-17 13:00:00 15 13 Sudeste 24 Sudeste 0 -- -- 65
2019-04-17 12:00:00 13.4 14 Sudeste 22 Sudeste 0 -- -- 72
2019-04-17 11:00:00 12.3 10 Sudeste 21 Sudeste 0 -- -- 76
2019-04-17 10:00:00 10.8 9 Sudeste 17 Sur 0 -- -- 82
2019-04-17 09:00:00 8.6 8 Sudeste 12 Sur 0 -- -- 86
2019-04-17 08:00:00 6.7 0 Calma 12 Sudeste 0 -- -- 85
2019-04-17 07:00:00 6.9 3 Sur 10 Sudeste 0 -- -- 86
2019-04-17 06:00:00 7.6 3 Sudeste 15 Sudeste 0 -- -- 84
2019-04-17 05:00:00 5.2 2 Sudeste 5 Sudeste 0 -- -- 88
2019-04-17 04:00:00 5.5 3 Sur 6 Oeste 0 -- -- 86
2019-04-17 03:00:00 6.1 2 Sudoeste 5 Oeste 0 -- -- 85
2019-04-17 02:00:00 7 0 Calma 3 Oeste 0 -- -- 85
2019-04-17 01:00:00 7.8 0 Calma 11 Sudoeste 0 -- -- 81
2019-04-17 00:00:00 9 4 Sudoeste 8 Sudoeste 0 -- -- 78
2019-04-16 23:00:00 9.6 3 Oeste 7 Sudoeste 0 -- -- 77
2019-04-16 22:00:00 11.4 2 Noroeste 4 Noroeste 0 -- -- 69
2019-04-16 21:00:00 14.4 3 Noroeste 10 Nordeste 0 -- -- 62
2019-04-16 20:00:00 17.9 5 Este 14 Sudeste 0 -- -- 46
2019-04-16 19:00:00 18.8 9 Sudeste 15 Sudeste 0 -- -- 41
2019-04-16 18:00:00 18.8 6 Sudeste 21 Sudeste 0 -- -- 43
2019-04-16 17:00:00 18.6 10 Sudeste 22 Sudeste 0 -- -- 46
2019-04-16 16:00:00 17.5 8 Sudeste 24 Sudeste 0 -- -- 46
2019-04-16 15:00:00 17.6 9 Sudeste 22 Este 0 -- -- 47
2019-04-16 14:00:00 16.3 7 Sudeste 23 Sudeste 0 -- -- 54
2019-04-16 13:00:00 15.4 10 Sudeste 22 Sudeste 0 -- -- 58
2019-04-16 12:00:00 13.7 4 Sudeste 10 Este 0 -- -- 66
2019-04-16 11:00:00 10.9 2 Sudeste 9 Sudeste 0 -- -- 73
2019-04-16 10:00:00 6.8 3 Este 12 Sudeste 0 -- -- 90
2019-04-16 09:00:00 3.8 3 Sudoeste 6 Oeste 0 -- -- 96
2019-04-16 08:00:00 1.6 0 Calma 4 Noroeste 0 -- -- 95
2019-04-16 07:00:00 1.7 0 Calma 8 Oeste 0 -- -- 93
2019-04-16 06:00:00 2.2 4 Sudoeste 7 Sudoeste 0 -- -- 91
2019-04-16 05:00:00 3.9 0 Calma 9 Sudoeste 0 -- -- 88
2019-04-16 04:00:00 4.6 4 Oeste 9 Oeste 0 -- -- 87
2019-04-16 03:00:00 5 0 Calma 8 Oeste 0 -- -- 88
2019-04-16 02:00:00 6.1 4 Sudoeste 10 Oeste 0 -- -- 83
2019-04-16 01:00:00 8 7 Oeste 18 Oeste 0 -- -- 80
2019-04-16 00:00:00 9 12 Oeste 17 Oeste 0 -- -- 82
2019-04-15 23:00:00 9.3 7 Oeste 23 Oeste 0 -- -- 78
2019-04-15 22:00:00 12.1 18 Oeste 31 Oeste 0 -- -- 67
2019-04-15 21:00:00 13.3 16 Oeste 41 Oeste 0 -- -- 63
2019-04-15 20:00:00 13.2 26 Oeste 55 Oeste 0 -- -- 62
2019-04-15 19:00:00 14.1 27 Oeste 60 Oeste 0 -- -- 59
2019-04-15 18:00:00 16 33 Oeste 65 Oeste 0 -- -- 58
2019-04-15 17:00:00 17 40 Oeste 65 Oeste 0 -- -- 62
2019-04-15 16:00:00 18.4 25 Oeste 43 Oeste 0 -- -- 66
2019-04-15 15:00:00 15.2 8 Oeste 43 Sudoeste 3.2 -- -- 88
2019-04-15 14:00:00 21.7 16 Sudoeste 40 Sudoeste 0 -- -- 54
2019-04-15 13:00:00 20.6 12 Sur 27 Sudeste 0 -- -- 58
2019-04-15 12:00:00 18 11 Sudeste 23 Sudeste 0 -- -- 72
2019-04-15 11:00:00 15 13 Sudeste 20 Sudeste 0 -- -- 76
2019-04-15 10:00:00 13.1 12 Sudeste 17 Sudeste 0 -- -- 81
2019-04-15 09:00:00 11.6 6 Sudeste 13 Sudeste 0 -- -- 85
2019-04-15 08:00:00 10.6 9 Sudeste 12 Sudeste 0 -- -- 87
2019-04-15 07:00:00 10.7 6 Sudeste 12 Sudeste 0 -- -- 87
2019-04-15 06:00:00 10.1 2 Sudeste 5 Sur 0 -- -- 91
2019-04-15 05:00:00 9.6 0 Calma 5 Sudeste 0 -- -- 91
2019-04-15 04:00:00 9.8 2 Sudeste 4 Sudeste 0 -- -- 89
2019-04-15 03:00:00 10 0 Calma 7 Oeste 0 -- -- 88
2019-04-15 02:00:00 10.1 0 Calma 8 Sudoeste 0 -- -- 86
2019-04-15 01:00:00 10.8 0 Calma 8 Sudoeste 0 -- -- 83
2019-04-15 00:00:00 12.4 5 Sudoeste 8 Oeste 0 -- -- 79
2019-04-14 23:00:00 14.7 0 Calma 16 Oeste 0 -- -- 70
2019-04-14 22:00:00 15.2 5 Sudoeste 11 Oeste 0 -- -- 71
2019-04-14 21:00:00 16.9 6 Oeste 9 Oeste 0 -- -- 66
2019-04-14 20:00:00 20.9 3 Oeste 10 Noroeste 0 -- -- 55
2019-04-14 19:00:00 21.7 3 Sur 14 Noroeste 0 -- -- 49
2019-04-14 18:00:00 21.8 3 Este 14 Noroeste 0 -- -- 49
2019-04-14 17:00:00 21.4 6 Oeste 16 Oeste 0 -- -- 50
2019-04-14 16:00:00 21 8 Oeste 25 Sudoeste 0 -- -- 50
2019-04-14 15:00:00 19.6 6 Sudoeste 20 Oeste 0 -- -- 55
2019-04-14 14:00:00 19 6 Sudoeste 14 Oeste 0 -- -- 56
2019-04-14 13:00:00 17.8 4 Sur 14 Sur 0 -- -- 65
2019-04-14 12:00:00 16.3 4 Oeste 13 Oeste 0 -- -- 67
2019-04-14 11:00:00 14.1 5 Oeste 13 Oeste 0 -- -- 79
2019-04-14 10:00:00 12.3 3 Sudoeste 13 Sudoeste 0 -- -- 87
2019-04-14 09:00:00 10.2 5 Sur 12 Este 0 -- -- 92
2019-04-14 08:00:00 9.4 2 Sudeste 8 Sudeste 0 -- -- 88
2019-04-14 07:00:00 10.3 3 Sudeste 8 Sudeste 0 -- -- 85
2019-04-14 06:00:00 11.2 4 Sudoeste 36 Sudoeste 0 -- -- 82
2019-04-14 05:00:00 12.3 17 Oeste 33 Oeste 0 -- -- 80
2019-04-14 04:00:00 13 17 Oeste 31 Oeste 0 -- -- 74
2019-04-14 03:00:00 13.3 13 Oeste 35 Oeste 0 -- -- 70
2019-04-14 02:00:00 13.9 17 Oeste 33 Oeste 0 -- -- 64
2019-04-14 01:00:00 13.4 17 Oeste 31 Noroeste 0 -- -- 62
2019-04-14 00:00:00 14.1 18 Oeste 27 Oeste 0 -- -- 58
2019-04-13 23:00:00 13.4 16 Oeste 25 Oeste 0 -- -- 59
2019-04-13 22:00:00 11.3 6 Sudoeste 15 Sudoeste 0 -- -- 61
2019-04-13 21:00:00 15.1 6 Sudoeste 14 Oeste 0 -- -- 51
2019-04-13 20:00:00 19.3 12 Oeste 20 Oeste 0 -- -- 34
2019-04-13 19:00:00 19.7 10 Oeste 22 Oeste 0 -- -- 33
2019-04-13 18:00:00 20.2 11 Oeste 25 Oeste 0 -- -- 34
2019-04-13 17:00:00 20.4 8 Oeste 23 Oeste 0 -- -- 35
2019-04-13 16:00:00 19.6 6 Oeste 33 Oeste 0 -- -- 36
2019-04-13 15:00:00 19 10 Oeste 20 Oeste 0 -- -- 38
2019-04-13 14:00:00 17.8 6 Sudoeste 14 Sudoeste 0 -- -- 38
2019-04-13 13:00:00 16.8 7 Sur 16 Sudeste 0 -- -- 44
2019-04-13 12:00:00 14.6 6 Sudeste 13 Sudeste 0 -- -- 54
2019-04-13 11:00:00 10.9 5 Sudeste 10 Sudeste 0 -- -- 67
2019-04-13 10:00:00 5.4 3 Este 12 Sudeste 0 -- -- 83
2019-04-13 09:00:00 2.9 8 Sudeste 13 Sudeste 0 -- -- 91
2019-04-13 08:00:00 0 2 Sudeste 5 Sudeste 0 -- -- 93
2019-04-13 07:00:00 0.1 0 Calma 5 Sur 0 -- -- 92
2019-04-13 06:00:00 0 0 Calma 3 Sudoeste 0 -- -- 92
2019-04-13 05:00:00 0.1 0 Calma 6 Sudoeste 0 -- -- 90
2019-04-13 04:00:00 0.9 0 Calma -- -- 0 -- -- 87
2019-04-13 03:00:00 2 0 Calma 8 Sudoeste 0 -- -- 85
2019-04-13 02:00:00 2.5 0 Calma 9 Sudoeste 0 -- -- 82
2019-04-13 01:00:00 2.8 4 Oeste 7 Oeste 0 -- -- 81
2019-04-13 00:00:00 4.1 0 Calma 13 Sudoeste 0 -- -- 78
2019-04-12 23:00:00 4.9 3 Sudeste 12 Sudoeste 0 -- -- 71
2019-04-12 22:00:00 6.3 10 Sudoeste 12 Sudoeste 0 -- -- 64
2019-04-12 21:00:00 9.7 6 Oeste 9 Norte 0 -- -- 56
2019-04-12 20:00:00 15.4 6 Noroeste 12 Noroeste 0 -- -- 34
2019-04-12 19:00:00 16 6 Noroeste 17 Noroeste 0 -- -- 36
2019-04-12 18:00:00 16 8 Noroeste 18 Noroeste 0 -- -- 40
2019-04-12 17:00:00 15.5 10 Noroeste 17 Noroeste 0 -- -- 41
2019-04-12 16:00:00 14.5 8 Noroeste 22 Noroeste 0 -- -- 45
2019-04-12 15:00:00 13.4 10 Noroeste 22 Noroeste 0 -- -- 52
2019-04-12 14:00:00 12.5 7 Norte 27 Noroeste 0 -- -- 57
2019-04-12 13:00:00 11.3 7 Norte 17 Noroeste 0 -- -- 58
2019-04-12 12:00:00 9.5 9 Norte 18 Noroeste 0 -- -- 65
2019-04-12 11:00:00 7.4 4 Norte 14 Noroeste 0 -- -- 79
2019-04-12 10:00:00 4 7 Norte 12 Noroeste 0 -- -- 94
2019-04-12 09:00:00 1.5 5 Norte 8 Noroeste 0 -- -- 98
2019-04-12 08:00:00 -0.9 2 Noroeste 6 Oeste 0 -- -- 95
2019-04-12 07:00:00 -0.2 0 Calma 6 Noroeste 0 -- -- 93
2019-04-12 06:00:00 0.5 0 Calma 7 Sudoeste 0 -- -- 92
2019-04-12 05:00:00 1 2 Sudoeste 6 Sudoeste 0 -- -- 91
2019-04-12 04:00:00 1.9 0 Calma 4 Este 0 -- -- 90
2019-04-12 03:00:00 2.6 0 Calma 7 Este 0 -- -- 88
2019-04-12 02:00:00 4.2 0 Calma 10 Este 0 -- -- 84
2019-04-12 01:00:00 4.9 3 Este 8 Sudeste 0 -- -- 84
2019-04-12 00:00:00 6 3 Este 10 Este 0 -- -- 80
2019-04-11 23:00:00 7 2 Este 13 Este 0 -- -- 78
2019-04-11 22:00:00 8.4 5 Este 22 Este 0 -- -- 74
2019-04-11 21:00:00 10.7 8 Nordeste 19 Norte 0 -- -- 65
2019-04-11 20:00:00 12.3 4 Nordeste 8 Nordeste 0 -- -- 52
2019-04-11 19:00:00 13.7 5 Noroeste 12 Noroeste 0 -- -- 46
2019-04-11 18:00:00 14 6 Noroeste 14 Noroeste 0 -- -- 45
2019-04-11 17:00:00 13.1 5 Nordeste 17 Norte 0 -- -- 48
2019-04-11 16:00:00 13.6 4 Nordeste 14 Nordeste 0 -- -- 46
2019-04-11 15:00:00 12.6 6 Norte 16 Noroeste 0 -- -- 50
2019-04-11 14:00:00 12 6 Oeste 18 Noroeste 0 -- -- 53
2019-04-11 13:00:00 11.3 11 Oeste 21 Noroeste 0 -- -- 58
2019-04-11 12:00:00 9.4 4 Sudoeste 14 Oeste 0 -- -- 66
2019-04-11 11:00:00 7.9 3 Noroeste 10 Sudeste 0 -- -- 79
2019-04-11 10:00:00 3.9 7 Sudeste 10 Sudeste 0 -- -- 98
2019-04-11 09:00:00 0.2 2 Oeste 3 Oeste 0 -- -- 98
2019-04-11 08:00:00 -1.3 0 Calma 6 Sudoeste 0 -- -- 96
2019-04-11 07:00:00 -1 2 Sudoeste 7 Sudoeste 0 -- -- 95
2019-04-11 06:00:00 -0.7 0 Calma 3 Sudeste 0 -- -- 94
2019-04-11 05:00:00 -0.1 0 Calma 7 Noroeste 0 -- -- 94
2019-04-11 04:00:00 0.3 0 Calma 7 Oeste 0 -- -- 92
2019-04-11 03:00:00 1.3 4 Oeste 7 Sudoeste 0 -- -- 90
2019-04-11 02:00:00 2.9 3 Oeste 5 Sudoeste 0 -- -- 86
2019-04-11 01:00:00 4.2 4 Sudeste 7 Sudeste 0 -- -- 85
2019-04-11 00:00:00 5.4 4 Este 12 Este 0 -- -- 85
2019-04-10 23:00:00 5.6 3 Noroeste 9 Nordeste 0 -- -- 82
2019-04-10 22:00:00 7 4 Nordeste 15 Nordeste 0 -- -- 80
2019-04-10 21:00:00 8.4 5 Nordeste 20 Norte 0 -- -- 76
2019-04-10 20:00:00 10.4 6 Norte 23 Nordeste 0.2 -- -- 75
2019-04-10 19:00:00 12.6 4 Norte 22 Norte 0 -- -- 55
2019-04-10 18:00:00 12.7 5 Norte 22 Norte 0 -- -- 57
2019-04-10 17:00:00 11.8 9 Norte 19 Noroeste 0 -- -- 66
2019-04-10 16:00:00 10.3 7 Norte 15 Norte 0 -- -- 71
2019-04-10 15:00:00 7.7 3 Norte 12 Noroeste 0.2 -- -- 82
2019-04-10 14:00:00 7.1 6 Noroeste 19 Oeste 1.2 -- -- 88
2019-04-10 13:00:00 8.4 11 Noroeste 24 Oeste 0 -- -- 73
2019-04-10 12:00:00 8.7 12 Oeste 23 Oeste 0 -- -- 75
2019-04-10 11:00:00 6.7 8 Oeste 22 Oeste 0 -- -- 83
2019-04-10 10:00:00 5.8 15 Oeste 27 Oeste 0 -- -- 82
2019-04-10 09:00:00 4.6 15 Oeste 33 Sudoeste 0 -- -- 91
2019-04-10 08:00:00 4.3 19 Oeste 31 Oeste 0.2 -- -- 92
2019-04-10 07:00:00 4.1 19 Oeste 31 Oeste 0 -- -- 93
2019-04-10 06:00:00 4 19 Oeste 33 Oeste 0 -- -- 93
2019-04-10 05:00:00 3.7 20 Oeste 31 Oeste 0 -- -- 92
2019-04-10 04:00:00 3.9 18 Oeste 37 Oeste 0 -- -- 90
2019-04-10 03:00:00 4.5 23 Oeste 39 Oeste 0 -- -- 89
2019-04-10 02:00:00 5.1 22 Oeste 35 Oeste 0 -- -- 89
2019-04-10 01:00:00 6.2 22 Oeste 43 Oeste 0 -- -- 88
2019-04-10 00:00:00 6.1 23 Oeste 39 Oeste 0 -- -- 87
2019-04-09 23:00:00 7.2 28 Oeste 39 Oeste 0 -- -- 80
2019-04-09 22:00:00 7.4 22 Oeste 35 Oeste 0 -- -- 77
2019-04-09 21:00:00 8.6 18 Oeste 39 Noroeste 0 -- -- 72
2019-04-09 20:00:00 9.5 26 Oeste 45 Oeste 0 -- -- 68
2019-04-09 19:00:00 9.5 21 Oeste 54 Oeste 0 -- -- 73
2019-04-09 18:00:00 11.8 24 Oeste 58 Noroeste 0 -- -- 64
2019-04-09 17:00:00 10.6 26 Oeste 48 Oeste 0 -- -- 64
2019-04-09 16:00:00 10.5 25 Oeste 42 Oeste 0 -- -- 73
2019-04-09 15:00:00 9.3 24 Oeste 40 Oeste 0 -- -- 75
2019-04-09 14:00:00 7.5 22 Oeste 36 Oeste 0 -- -- 87
2019-04-09 13:00:00 7.1 18 Sudoeste 40 Oeste 1.4 -- -- 90
2019-04-09 12:00:00 7.9 15 Sudoeste 31 Sudoeste 0.2 -- -- 85
2019-04-09 11:00:00 7.2 12 Sudoeste 24 Sudoeste 0.2 -- -- 88
2019-04-09 10:00:00 6.3 8 Sudoeste 19 Sudoeste 0.2 -- -- 92
2019-04-09 09:00:00 5.5 9 Sur 19 Sur 0 -- -- 92
2019-04-09 08:00:00 4.7 7 Sur 13 Sudeste 0 -- -- 91
2019-04-09 07:00:00 4.4 4 Sur 12 Sur 0 -- -- 90
2019-04-09 06:00:00 4.2 3 Sur 13 Sudoeste 0 -- -- 92
2019-04-09 05:00:00 3.8 8 Sudoeste 18 Sudoeste 0 -- -- 91
2019-04-09 04:00:00 4.1 11 Sudoeste 19 Oeste 0 -- -- 91
2019-04-09 03:00:00 4.2 10 Oeste 24 Oeste 0 -- -- 90
2019-04-09 02:00:00 4.7 11 Oeste 21 Oeste 0 -- -- 87
2019-04-09 01:00:00 5 9 Sudoeste 21 Sudoeste 0 -- -- 86
2019-04-09 00:00:00 5.7 9 Oeste 26 Oeste 0 -- -- 83
2019-04-08 23:00:00 6.8 18 Oeste 30 Oeste 0 -- -- 78
2019-04-08 22:00:00 8 17 Oeste 35 Oeste 0 -- -- 73
2019-04-08 21:00:00 9.8 24 Oeste 36 Oeste 0 -- -- 64
2019-04-08 20:00:00 11.3 13 Oeste 31 Oeste 0 -- -- 57
2019-04-08 19:00:00 13.2 20 Oeste 34 Sudoeste 0 -- -- 51
2019-04-08 18:00:00 14.6 16 Oeste 35 Oeste 0 -- -- 52
2019-04-08 17:00:00 14.9 18 Oeste 35 Oeste 0 -- -- 47
2019-04-08 16:00:00 13.7 17 Oeste 38 Oeste 0 -- -- 53
2019-04-08 15:00:00 13.6 20 Oeste 33 Oeste 0 -- -- 51
2019-04-08 14:00:00 11 20 Oeste 41 Oeste 0 -- -- 70
2019-04-08 13:00:00 11.7 16 Oeste 29 Oeste 0 -- -- 67
2019-04-08 12:00:00 11.2 18 Oeste 36 Oeste 0 -- -- 76
2019-04-08 11:00:00 9.2 21 Oeste 32 Oeste 0 -- -- 83
2019-04-08 10:00:00 8.5 18 Oeste 31 Oeste 0 -- -- 88
2019-04-08 09:00:00 7.9 18 Oeste 28 Oeste 0 -- -- 93
2019-04-08 08:00:00 7.5 12 Sudoeste 29 Oeste 0 -- -- 93
2019-04-08 07:00:00 8.1 12 Sudoeste 23 Sudoeste 0 -- -- 95
2019-04-08 06:00:00 7.7 6 Sur 15 Sudoeste 0.2 -- -- 96
2019-04-08 05:00:00 7.6 7 Sudoeste 17 Sudoeste 0.8 -- -- 95
2019-04-08 04:00:00 7.5 8 Sur 18 Sudoeste 0 -- -- 95
2019-04-08 03:00:00 7.1 8 Sur 20 Sur 0 -- -- 96
2019-04-08 02:00:00 6.7 7 Sur 19 Sudoeste 0 -- -- 96
2019-04-08 01:00:00 6.1 8 Sur 18 Sudeste 0 -- -- 95
2019-04-08 00:00:00 5.8 12 Sudeste 24 Sudeste 0.2 -- -- 95
2019-04-07 23:00:00 5.8 12 Sudeste 22 Sudeste 0 -- -- 94
2019-04-07 22:00:00 5.9 10 Sudeste 15 Sudeste 0.8 -- -- 94
2019-04-07 21:00:00 6 5 Sudoeste 19 Sudoeste 1 -- -- 90
2019-04-07 20:00:00 6.3 12 Sudoeste 28 Oeste 0.8 -- -- 89
2019-04-07 19:00:00 7.4 14 Sudoeste 32 Sudoeste 0.8 -- -- 86
2019-04-07 18:00:00 10 6 Sudoeste 29 Oeste 0 -- -- 67
2019-04-07 17:00:00 11.9 15 Oeste 27 Oeste 0 -- -- 47
2019-04-07 16:00:00 12.7 10 Sudoeste 25 Sudoeste 0 -- -- 47
2019-04-07 15:00:00 13.2 13 Sur 27 Sur 0 -- -- 47
2019-04-07 14:00:00 11.5 10 Sudoeste 24 Oeste 0 -- -- 50
2019-04-07 13:00:00 9.6 13 Oeste 26 Oeste 0 -- -- 59
2019-04-07 12:00:00 7.6 10 Sudoeste 26 Oeste 0 -- -- 67
2019-04-07 11:00:00 6.5 12 Noroeste 30 Oeste 0 -- -- 70
2019-04-07 10:00:00 4.4 20 Oeste 33 Oeste 0 -- -- 79
2019-04-07 09:00:00 2.8 16 Oeste 31 Oeste 0 -- -- 87
2019-04-07 08:00:00 1.6 21 Oeste 35 Oeste 0 -- -- 91
2019-04-07 07:00:00 1.7 21 Oeste 36 Oeste 0 -- -- 92
2019-04-07 06:00:00 1.5 21 Oeste 46 Oeste 0 -- -- 92
2019-04-07 05:00:00 2 24 Oeste 43 Oeste 0 -- -- 90
2019-04-07 04:00:00 2.5 23 Oeste 39 Oeste 0 -- -- 90
2019-04-07 03:00:00 2.6 23 Oeste 35 Oeste 0 -- -- 90
2019-04-07 02:00:00 2.8 24 Oeste 43 Sudoeste 0.2 -- -- 87
2019-04-07 01:00:00 3 25 Oeste 42 Oeste 0 -- -- 86
2019-04-07 00:00:00 3.2 18 Oeste 34 Sudoeste 0 -- -- 84
2019-04-06 23:00:00 3.8 17 Oeste 29 Oeste 0 -- -- 78
2019-04-06 22:00:00 5.6 17 Oeste 32 Oeste 0 -- -- 72
2019-04-06 21:00:00 6 15 Oeste 26 Oeste 0 -- -- 81
2019-04-06 20:00:00 6.5 21 Oeste 36 Oeste 0 -- -- 81
2019-04-06 19:00:00 4.7 9 Sudoeste 30 Oeste 2.6 -- -- 94
2019-04-06 18:00:00 5.2 10 Noroeste 57 Oeste 0 -- -- 81
2019-04-06 17:00:00 8.7 28 Oeste 58 Oeste 0 -- -- 67
2019-04-06 16:00:00 9.8 31 Oeste 51 Oeste 0.2 -- -- 63
2019-04-06 15:00:00 7.2 28 Oeste 48 Oeste 0 -- -- 73
2019-04-06 14:00:00 5.9 28 Oeste 47 Oeste 0 -- -- 79
2019-04-06 13:00:00 5.8 23 Sudoeste 41 Sudoeste 0 -- -- 82
2019-04-06 12:00:00 6.3 18 Sudoeste 41 Sudoeste 0 -- -- 77
2019-04-06 11:00:00 5.7 21 Sudoeste 40 Sudoeste 0 -- -- 80
2019-04-06 10:00:00 4.9 16 Sudoeste 29 Sudoeste 0 -- -- 87
2019-04-06 09:00:00 3.3 12 Sudoeste 22 Sudoeste 0.2 -- -- 95
2019-04-06 08:00:00 2.6 11 Sudoeste 23 Sudoeste 0.2 -- -- 92
2019-04-06 07:00:00 2.7 12 Sudoeste 21 Sudoeste 0 -- -- 92
2019-04-06 06:00:00 1.6 9 Sudoeste 30 Sudoeste 0 -- -- 92
2019-04-06 05:00:00 2.3 16 Oeste 32 Oeste 0 -- -- 90
2019-04-06 04:00:00 3 21 Oeste 39 Oeste 0 -- -- 90
2019-04-06 03:00:00 3.1 20 Oeste 32 Sudoeste 0 -- -- 92
2019-04-06 02:00:00 2.8 17 Sudoeste 28 Sur 0 -- -- 90
2019-04-06 01:00:00 3 10 Sudoeste 23 Oeste 0 -- -- 90
2019-04-06 00:00:00 3 16 Oeste 23 Oeste 0 -- -- 90
2019-04-05 23:00:00 2.9 8 Oeste 13 Oeste 0 -- -- 85
2019-04-05 22:00:00 4.3 7 Sudoeste 15 Sudoeste 0 -- -- 84
2019-04-05 21:00:00 6 8 Sudoeste 31 Sudeste 0 -- -- 78
2019-04-05 20:00:00 7.3 9 Sudeste 16 Sur 0.2 -- -- 78
2019-04-05 19:00:00 9.2 10 Oeste 28 Oeste 0 -- -- 53
2019-04-05 18:00:00 9.7 15 Oeste 28 Oeste 0 -- -- 58
2019-04-05 17:00:00 7.9 10 Oeste 28 Oeste 0 -- -- 65
2019-04-05 16:00:00 7.2 23 Oeste 34 Oeste 0 -- -- 68
2019-04-05 15:00:00 5.6 11 Noroeste 31 Oeste 0.6 -- -- 80
2019-04-05 14:00:00 7.4 8 Sudoeste 19 Sudoeste 0 -- -- 66
2019-04-05 13:00:00 6.8 11 Sudoeste 25 Oeste 0 -- -- 75
2019-04-05 12:00:00 6.2 14 Oeste 24 Sudoeste 0 -- -- 77
2019-04-05 11:00:00 5.5 13 Sudoeste 27 Sudoeste 0 -- -- 81
2019-04-05 10:00:00 4.5 9 Sudoeste 18 Sur 0 -- -- 93
2019-04-05 09:00:00 4 2 Sudeste 30 Oeste 0.4 -- -- 92
2019-04-05 08:00:00 4.6 10 Sudoeste 23 Sudoeste 0.8 -- -- 93
2019-04-05 07:00:00 4.5 8 Sudoeste 19 Sudoeste 0 -- -- 95
2019-04-05 06:00:00 3.8 6 Sudeste 16 Sudoeste 0 -- -- 95
2019-04-05 05:00:00 3.4 8 Sur 29 Sur 0.8 -- -- 94
2019-04-05 04:00:00 3.8 11 Sur 33 Sudeste 1 -- -- 91
2019-04-05 03:00:00 4.4 9 Sudeste 22 Sudeste 0 -- -- 92
2019-04-05 02:00:00 4.4 11 Sudeste 18 Sudeste 0.2 -- -- 93
2019-04-05 01:00:00 4.4 7 Sudeste 12 Sudeste 0.2 -- -- 93
2019-04-05 00:00:00 4.3 4 Sudeste 12 Sudeste 0 -- -- 90
2019-04-04 23:00:00 4.6 5 Sudeste 10 Sudoeste 0.6 -- -- 88
2019-04-04 22:00:00 4.6 5 Sudoeste 17 Sudoeste 0.6 -- -- 86
2019-04-04 21:00:00 5.2 14 Sudoeste 30 Oeste 0 -- -- 79
2019-04-04 20:00:00 6.8 19 Oeste 35 Sudoeste 0 -- -- 64
2019-04-04 19:00:00 8.7 21 Oeste 42 Oeste 0 -- -- 45
2019-04-04 18:00:00 10.9 19 Oeste 36 Oeste 0 -- -- 38
2019-04-04 17:00:00 13 16 Sudoeste 42 Oeste 0 -- -- 36
2019-04-04 16:00:00 12.6 15 Sudoeste 37 Sudoeste 0 -- -- 35
2019-04-04 15:00:00 11.5 15 Sudoeste 30 Sudoeste 0 -- -- 37
2019-04-04 14:00:00 10.4 15 Sudoeste 30 Sudoeste 0 -- -- 42
2019-04-04 13:00:00 8.8 15 Oeste 28 Oeste 0 -- -- 44
2019-04-04 12:00:00 7.9 17 Oeste 35 Oeste 0 -- -- 48
2019-04-04 11:00:00 5.7 20 Oeste 33 Oeste 0 -- -- 57
2019-04-04 10:00:00 3.4 20 Oeste 32 Oeste 0 -- -- 65
2019-04-04 09:00:00 -0.3 10 Oeste 21 Oeste 0 -- -- 78
2019-04-04 08:00:00 -2.2 3 Este 14 Oeste 0 -- -- 81
2019-04-04 07:00:00 -1.9 3 Oeste 12 Oeste 0 -- -- 81
2019-04-04 06:00:00 -0.3 10 Oeste 24 Oeste 0 -- -- 78
2019-04-04 05:00:00 -0.4 12 Oeste 25 Oeste 0 -- -- 81
2019-04-04 04:00:00 -0.1 14 Oeste 23 Oeste 0 -- -- 80
2019-04-04 03:00:00 0.1 14 Noroeste 26 Oeste 0 -- -- 77
2019-04-04 02:00:00 0.6 11 Oeste 21 Oeste 0 -- -- 70
2019-04-04 01:00:00 0.6 5 Noroeste 14 Oeste 0 -- -- 72
2019-04-04 00:00:00 1.6 9 Noroeste 17 Noroeste 0 -- -- 67
2019-04-03 23:00:00 2.6 10 Noroeste 19 Noroeste 0 -- -- 63
2019-04-03 22:00:00 3.6 7 Noroeste 15 Norte 0 -- -- 58
2019-04-03 21:00:00 5.8 9 Norte 34 Noroeste 0 -- -- 50
2019-04-03 20:00:00 8.1 13 Noroeste 37 Noroeste 0 -- -- 42
2019-04-03 19:00:00 8.9 17 Noroeste 29 Noroeste 0 -- -- 40
2019-04-03 18:00:00 9.4 16 Noroeste 28 Noroeste 0 -- -- 45
2019-04-03 17:00:00 7.1 23 Norte 59 Noroeste 0 -- -- 68
2019-04-03 16:00:00 10.2 18 Noroeste 37 Noroeste 0 -- -- 42
2019-04-03 15:00:00 10.5 14 Noroeste 39 Noroeste 0 -- -- 44
2019-04-03 14:00:00 10.2 24 Noroeste 41 Noroeste 0 -- -- 44
2019-04-03 13:00:00 10.3 21 Noroeste 37 Noroeste 0 -- -- 40
2019-04-03 12:00:00 9.5 17 Noroeste 33 Noroeste 0 -- -- 52
2019-04-03 11:00:00 8 16 Noroeste 28 Noroeste 0 -- -- 58
2019-04-03 10:00:00 5 10 Noroeste 29 Oeste 0 -- -- 79
2019-04-03 09:00:00 4.3 15 Oeste 30 Oeste 0 -- -- 83
2019-04-03 08:00:00 3.4 14 Oeste 21 Oeste 0 -- -- 91
2019-04-03 07:00:00 1.8 0 Calma 4 Norte 0 -- -- 95
2019-04-03 06:00:00 0.8 0 Calma 6 Oeste 0 -- -- 93
2019-04-03 05:00:00 1.5 0 Calma 12 Oeste 0 -- -- 92
2019-04-03 04:00:00 1.9 5 Oeste 10 Sudoeste 0 -- -- 91
2019-04-03 03:00:00 2.8 0 Calma 9 Sudoeste 0 -- -- 88
2019-04-03 02:00:00 4.3 2 Oeste 12 Nordeste 0 -- -- 82
2019-04-03 01:00:00 6.1 3 Nordeste 14 Norte 0 -- -- 83
2019-04-03 00:00:00 7.6 5 Nordeste 19 Nordeste 0 -- -- 77
2019-04-02 23:00:00 8.6 9 Norte 23 Norte 0 -- -- 74
2019-04-02 22:00:00 12.3 17 Noroeste 28 Oeste 0 -- -- 59
2019-04-02 21:00:00 12.5 8 Oeste 20 Noroeste 0 -- -- 53
2019-04-02 20:00:00 15.3 11 Oeste 22 Oeste 0 -- -- 43
2019-04-02 19:00:00 16.8 13 Noroeste 24 Noroeste 0 -- -- 38
2019-04-02 18:00:00 17.3 9 Noroeste 22 Oeste 0 -- -- 41
2019-04-02 17:00:00 17.8 12 Noroeste 22 Noroeste 0 -- -- 43
2019-04-02 16:00:00 17.2 5 Norte 17 Norte 0 -- -- 46
2019-04-02 15:00:00 17.9 7 Sudoeste 16 Noroeste 0 -- -- 46
2019-04-02 14:00:00 16.2 3 Sudeste 12 Sudeste 0 -- -- 51
2019-04-02 13:00:00 14.8 5 Sudeste 20 Sudeste 0 -- -- 53
2019-04-02 12:00:00 13.7 7 Sudeste 20 Sudeste 0 -- -- 62
2019-04-02 11:00:00 11.2 6 Sudeste 12 Sudeste 0 -- -- 73
2019-04-02 10:00:00 8.2 6 Sudeste 11 Sudeste 0 -- -- 86
2019-04-02 09:00:00 5.6 0 Calma 4 Sudoeste 0 -- -- 93
2019-04-02 08:00:00 4.9 2 Sudoeste 4 Sudoeste 0 -- -- 93
2019-04-02 07:00:00 4.4 0 Calma 8 Sur 0 -- -- 93
2019-04-02 06:00:00 3.8 2 Sur 4 Sudoeste 0 -- -- 89
2019-04-02 05:00:00 4.5 0 Calma 4 Noroeste 0 -- -- 90
2019-04-02 04:00:00 3.8 0 Calma 6 Oeste 0 -- -- 90
2019-04-02 03:00:00 4.2 3 Oeste 6 Oeste 0 -- -- 88
2019-04-02 02:00:00 5.3 2 Noroeste 5 Oeste 0 -- -- 84
2019-04-02 01:00:00 6.1 4 Oeste 6 Oeste 0 -- -- 78
2019-04-02 00:00:00 6.6 4 Noroeste 8 Norte 0 -- -- 73
2019-04-01 23:00:00 5.5 4 Oeste 6 Sudoeste 0 -- -- 67
2019-04-01 22:00:00 6.9 2 Sudeste 9 Sudoeste 0 -- -- 64
2019-04-01 21:00:00 9.7 6 Oeste 8 Oeste 0 -- -- 54
2019-04-01 20:00:00 17.1 5 Oeste 9 Sudoeste 0 -- -- 36
2019-04-01 19:00:00 17.3 8 Oeste 13 Oeste 0 -- -- 32
2019-04-01 18:00:00 17.6 5 Noroeste 15 Noroeste 0 -- -- 35
2019-04-01 17:00:00 17.2 5 Oeste 22 Noroeste 0 -- -- 35
2019-04-01 16:00:00 16.8 8 Oeste 19 Noroeste 0 -- -- 34
2019-04-01 15:00:00 16.3 5 Noroeste 19 Noroeste 0 -- -- 41
2019-04-01 14:00:00 15.3 4 Oeste 18 Norte 0 -- -- 48
2019-04-01 13:00:00 13.6 8 Noroeste 14 Norte 0 -- -- 54
2019-04-01 12:00:00 12 4 Norte 9 Norte 0 -- -- 62
2019-04-01 11:00:00 9.1 3 Norte 8 Norte 0 -- -- 73
2019-04-01 10:00:00 4.4 3 Norte 7 Noroeste 0 -- -- 86
2019-04-01 09:00:00 2 4 Noroeste 6 Noroeste 0 -- -- 94
2019-04-01 08:00:00 1.2 0 Calma 8 Noroeste 0 -- -- 91
2019-04-01 07:00:00 2 3 Noroeste 8 Noroeste 0 -- -- 94
2019-04-01 06:00:00 1.4 3 Noroeste 6 Sudoeste 0 -- -- 92
2019-04-01 05:00:00 2.4 6 Sudoeste 8 Sudoeste 0 -- -- 90
2019-04-01 04:00:00 3.2 0 Calma 8 Sudeste 0 -- -- 84
2019-04-01 03:00:00 4.3 3 Sur 12 Sudeste 0 -- -- 86
2019-04-01 02:00:00 6.3 9 Sudeste 17 Sudeste 0 -- -- 80
2019-04-01 01:00:00 7.4 8 Sudeste 21 Sudeste 0 -- -- 77
2019-04-01 00:00:00 7.9 9 Sudeste 24 Sudeste 0 -- -- 76
2019-03-31 23:00:00 8.6 9 Sudeste 28 Sudeste 0 -- -- 72
2019-03-31 22:00:00 9.8 11 Sudeste 29 Sudeste 0 -- -- 67
2019-03-31 21:00:00 11.9 15 Sudeste 32 Sudeste 0 -- -- 60
2019-03-31 20:00:00 14.6 17 Sudeste 32 Sudeste 0 -- -- 47
2019-03-31 19:00:00 16.2 10 Este 24 Este 0 -- -- 39
2019-03-31 18:00:00 17.9 9 Este 22 Nordeste 0 -- -- 37
2019-03-31 17:00:00 17.1 8 Este 24 Sudeste 0 -- -- 38
2019-03-31 16:00:00 17.9 8 Nordeste 28 Este 0 -- -- 37
2019-03-31 15:00:00 17 10 Nordeste 27 Nordeste 0 -- -- 42
2019-03-31 14:00:00 17 11 Este 27 Este 0 -- -- 42
2019-03-31 13:00:00 15.7 9 Este 30 Sudeste 0 -- -- 49
2019-03-31 12:00:00 13.8 8 Este 21 Nordeste 0 -- -- 51
2019-03-31 11:00:00 12 8 Este 18 Sudeste 0 -- -- 56
2019-03-31 10:00:00 6.3 0 Calma 6 Noroeste 0 -- -- 67
2019-03-31 09:00:00 3.5 3 Noroeste 6 Noroeste 0 -- -- 72
2019-03-31 08:00:00 2.8 4 Norte 8 Sudoeste 0 -- -- 73
2019-03-31 07:00:00 3.4 0 Calma 5 Sudeste 0 -- -- 69
2019-03-31 06:00:00 6.7 3 Sudeste 12 Nordeste 0 -- -- 57
2019-03-31 05:00:00 7.3 7 Nordeste 17 Nordeste 0 -- -- 54
2019-03-31 03:00:00 6.1 2 Este 16 Sudeste 0 -- -- 57
2019-03-31 01:00:00 8 9 Sudeste 18 Sudeste 0 -- -- 52
2019-03-31 00:00:00 7.6 4 Sudeste 14 Este 0 -- -- 61
2019-03-30 23:00:00 6.6 0 Calma 10 Este 0 -- -- 67
2019-03-30 22:00:00 7.3 0 Calma 6 Sudoeste 0 -- -- 63
2019-03-30 21:00:00 8 2 Oeste 5 Oeste 0 -- -- 58
2019-03-30 20:00:00 10.5 0 Calma 6 Oeste 0 -- -- 52
2019-03-30 19:00:00 16.7 0 Calma 9 Nordeste 0 -- -- 32
2019-03-30 18:00:00 17 8 Este 16 Nordeste 0 -- -- 32
2019-03-30 17:00:00 18.6 5 Nordeste 12 Nordeste 0 -- -- 30
2019-03-30 16:00:00 18.3 3 Noroeste 12 Sudeste 0 -- -- 32
2019-03-30 15:00:00 18.3 6 Este 18 Sudeste 0 -- -- 31
2019-03-30 14:00:00 18.9 8 Sudeste 18 Sudeste 0 -- -- 40
2019-03-30 13:00:00 17.4 8 Sudeste 25 Sudeste 0 -- -- 39
2019-03-30 12:00:00 15.8 6 Este 18 Sudeste 0 -- -- 45
2019-03-30 11:00:00 14.4 9 Sudeste 21 Sudeste 0 -- -- 49
2019-03-30 10:00:00 11 12 Sudeste 18 Sudeste 0 -- -- 56
2019-03-30 09:00:00 7.6 10 Sudeste 18 Sudeste 0 -- -- 64
2019-03-30 08:00:00 5.5 6 Sudeste 13 Sudeste 0 -- -- 67
2019-03-30 07:00:00 5.6 8 Sudeste 17 Sudeste 0 -- -- 63
2019-03-30 06:00:00 5.4 6 Sur 12 Sur 0 -- -- 63
2019-03-30 05:00:00 5.2 5 Sudeste 9 Sudeste 0 -- -- 63
2019-03-30 04:00:00 5.4 7 Sudeste 14 Sur 0 -- -- 60
2019-03-30 03:00:00 5.5 5 Sudeste 12 Sudeste 0 -- -- 58
2019-03-30 02:00:00 7.3 6 Sudeste 20 Sudeste 0 -- -- 52
2019-03-30 01:00:00 7.8 8 Sudeste 16 Sudeste 0 -- -- 50
2019-03-30 00:00:00 7.8 2 Sur 13 Sudeste 0 -- -- 47
2019-03-29 23:00:00 8.6 8 Sur 15 Sudoeste 0 -- -- 48
2019-03-29 22:00:00 6.4 4 Sur 11 Sur 0 -- -- 59
2019-03-29 21:00:00 8.1 4 Oeste 10 Sudoeste 0 -- -- 54
2019-03-29 20:00:00 11.5 9 Sudoeste 12 Sudoeste 0 -- -- 45
2019-03-29 19:00:00 18.9 4 Sudoeste 11 Este 0 -- -- 35
2019-03-29 18:00:00 18.9 5 Sudeste 19 Sudeste 0 -- -- 31
2019-03-29 17:00:00 20.4 5 Sudoeste 17 Sudoeste 0 -- -- 27
2019-03-29 16:00:00 20.2 4 Sudeste 18 Sudeste 0 -- -- 27
2019-03-29 15:00:00 19.8 8 Sur 21 Oeste 0 -- -- 27
2019-03-29 14:00:00 19.2 8 Sudoeste 22 Sudoeste 0 -- -- 30
2019-03-29 13:00:00 18.4 11 Sudoeste 23 Sudeste 0 -- -- 32
2019-03-29 12:00:00 16.3 12 Sur 30 Sudeste 0 -- -- 36
2019-03-29 11:00:00 13.9 16 Sudeste 25 Sudeste 0 -- -- 44
2019-03-29 10:00:00 10.2 10 Sudeste 17 Sudeste 0 -- -- 55
2019-03-29 09:00:00 3.9 2 Sudeste 3 Sudeste 0 -- -- 79
2019-03-29 08:00:00 -0.5 2 Oeste 8 Sudoeste 0 -- -- 91
2019-03-29 07:00:00 -1.3 4 Sudoeste 8 Sudoeste 0 -- -- 88
2019-03-29 06:00:00 -1.1 3 Sudoeste 6 Sudoeste 0 -- -- 87
2019-03-29 05:00:00 -0.7 2 Sudeste 4 Sudeste 0 -- -- 85
2019-03-29 04:00:00 0.7 0 Calma 8 Sudoeste 0 -- -- 81
2019-03-29 03:00:00 3.1 2 Este 9 Este 0 -- -- 73
2019-03-29 02:00:00 3.2 0 Calma 5 Este 0 -- -- 73
2019-03-29 01:00:00 5.6 3 Norte 8 Nordeste 0 -- -- 66
2019-03-29 00:00:00 6.8 4 Norte 11 Nordeste 0 -- -- 63
2019-03-28 23:00:00 8.5 4 Nordeste 15 Norte 0 -- -- 57
2019-03-28 22:00:00 9.7 6 Norte 12 Norte 0 -- -- 54
2019-03-28 21:00:00 11.2 4 Nordeste 16 Nordeste 0 -- -- 52
2019-03-28 20:00:00 13.2 8 Nordeste 20 Nordeste 0 -- -- 47
2019-03-28 19:00:00 15.6 8 Nordeste 26 Este 0 -- -- 40
2019-03-28 18:00:00 17 13 Nordeste 26 Nordeste 0 -- -- 36
2019-03-28 17:00:00 17.6 12 Este 28 Nordeste 0 -- -- 33
2019-03-28 16:00:00 17.4 11 Nordeste 27 Nordeste 0 -- -- 35
2019-03-28 15:00:00 16.8 11 Nordeste 24 Nordeste 0 -- -- 35
2019-03-28 14:00:00 15.7 12 Este 24 Este 0 -- -- 36
2019-03-28 13:00:00 14.3 8 Nordeste 23 Este 0 -- -- 41
2019-03-28 12:00:00 12.5 10 Nordeste 27 Nordeste 0 -- -- 50
2019-03-28 11:00:00 11.1 11 Nordeste 24 Este 0 -- -- 55
2019-03-28 10:00:00 9.2 10 Nordeste 23 Este 0 -- -- 59
2019-03-28 09:00:00 5.1 7 Nordeste 13 Nordeste 0 -- -- 78
2019-03-28 08:00:00 2.5 3 Noroeste 9 Norte 0 -- -- 82
2019-03-28 07:00:00 2.1 3 Este 15 Nordeste 0 -- -- 78
2019-03-28 06:00:00 2.4 3 Norte 13 Nordeste 0 -- -- 75
2019-03-28 05:00:00 2.7 5 Norte 12 Norte 0 -- -- 71
2019-03-28 04:00:00 3.2 3 Norte 23 Nordeste 0 -- -- 62
2019-03-28 03:00:00 4.6 12 Nordeste 35 Este 0 -- -- 51
2019-03-28 02:00:00 5.2 11 Este 30 Nordeste 0 -- -- 47
2019-03-28 01:00:00 5.3 7 Nordeste 17 Nordeste 0 -- -- 46
2019-03-28 00:00:00 5.5 6 Nordeste 23 Este 0 -- -- 48
2019-03-27 23:00:00 6.8 10 Nordeste 22 Este 0 -- -- 54
2019-03-27 22:00:00 8.1 6 Nordeste 34 Nordeste 0 -- -- 55
2019-03-27 21:00:00 9.8 9 Este 33 Nordeste 0 -- -- 50
2019-03-27 20:00:00 11.8 12 Nordeste 31 Nordeste 0 -- -- 41
2019-03-27 19:00:00 14.4 13 Nordeste 37 Nordeste 0 -- -- 27
2019-03-27 18:00:00 16.3 15 Nordeste 36 Nordeste 0 -- -- 24
2019-03-27 17:00:00 17.2 20 Nordeste 42 Nordeste 0 -- -- 22
2019-03-27 16:00:00 17.5 25 Nordeste 45 Nordeste 0 -- -- 21
2019-03-27 15:00:00 17.5 17 Nordeste 37 Este 0 -- -- 24
2019-03-27 14:00:00 16.9 16 Este 39 Nordeste 0 -- -- 27
2019-03-27 13:00:00 15.9 17 Este 38 Nordeste 0 -- -- 22
2019-03-27 12:00:00 14.5 15 Nordeste 33 Este 0 -- -- 26
2019-03-27 11:00:00 12 18 Nordeste 37 Nordeste 0 -- -- 34
2019-03-27 10:00:00 10 8 Nordeste 22 Este 0 -- -- 44
2019-03-27 09:00:00 6.1 4 Norte 16 Este 0 -- -- 57
2019-03-27 08:00:00 2.6 4 Noroeste 10 Nordeste 0 -- -- 70
2019-03-27 07:00:00 3.7 5 Nordeste 21 Nordeste 0 -- -- 64
2019-03-27 06:00:00 3.7 6 Nordeste 24 Este 0 -- -- 65
2019-03-27 05:00:00 3.6 10 Este 35 Este 0 -- -- 66
2019-03-27 04:00:00 3.3 10 Este 23 Nordeste 0 -- -- 66
2019-03-27 03:00:00 3.9 5 Nordeste 20 Este 0 -- -- 60
2019-03-27 02:00:00 3.2 4 Este 12 Norte 0 -- -- 58
2019-03-27 01:00:00 4.2 6 Nordeste 16 Noroeste 0 -- -- 53
2019-03-27 00:00:00 3.4 6 Oeste 12 Oeste 0 -- -- 52